Time;durP1;ratioP1;P1;durP2;ratioP2;P2;SDS_P1;SDS_P2;PMS_P1;PMS_P2;Temp;Humidity;BMP_temperature;BMP_pressure;BME280_temperature;BME280_humidity;BME280_pressure;Samples;Min_cycle;Max_cycle;Signal;HPM_P1;HPM_P2
2022/05/18 00:01:08;;;;;;;9.35;5.55;;;17.70;99.90;;;;;;5084903;28;20040;-50
2022/05/18 00:03:37;;;;;;;9.13;4.85;;;17.70;99.90;;;;;;5080016;28;20041;-51
2022/05/18 00:06:04;;;;;;;10.98;5.25;;;17.70;99.90;;;;;;5068712;28;20067;-50
2022/05/18 00:08:36;;;;;;;7.20;4.90;;;17.60;99.90;;;;;;5074309;28;20047;-50
2022/05/18 00:11:10;;;;;;;9.10;5.43;;;17.60;99.90;;;;;;5082715;28;20044;-50
2022/05/18 00:13:37;;;;;;;9.38;5.13;;;17.60;99.90;;;;;;5075403;28;20139;-51
2022/05/18 00:16:03;;;;;;;7.25;5.05;;;17.50;99.90;;;;;;5054762;28;20507;-50
2022/05/18 00:18:29;;;;;;;11.25;5.65;;;17.50;99.90;;;;;;5082230;28;20047;-55
2022/05/18 00:20:56;;;;;;;8.32;6.28;;;17.50;99.90;;;;;;5082455;28;20036;-54
2022/05/18 00:23:21;;;;;;;9.00;5.70;;;17.50;99.90;;;;;;5077564;28;20048;-53
2022/05/18 00:25:47;;;;;;;14.40;6.90;;;17.50;99.90;;;;;;5091092;28;20047;-51
2022/05/18 00:28:13;;;;;;;8.48;5.70;;;17.50;99.90;;;;;;5078244;28;20123;-52
2022/05/18 00:30:39;;;;;;;8.10;5.55;;;17.50;99.90;;;;;;5087125;28;20036;-51
2022/05/18 00:33:06;;;;;;;7.80;5.53;;;17.40;99.90;;;;;;5079480;28;20044;-51
2022/05/18 00:35:34;;;;;;;11.38;5.65;;;17.40;99.90;;;;;;5073176;28;20043;-57
2022/05/18 00:38:00;;;;;;;10.15;6.47;;;17.40;99.90;;;;;;5088448;28;20037;-51
2022/05/18 00:40:26;;;;;;;6.22;5.60;;;17.40;99.90;;;;;;5059098;28;20040;-55
2022/05/18 00:42:52;;;;;;;9.57;6.00;;;17.40;99.90;;;;;;5085882;28;20029;-53
2022/05/18 00:45:18;;;;;;;10.43;5.85;;;17.40;99.90;;;;;;5079514;28;20048;-53
2022/05/18 00:47:44;;;;;;;9.05;5.00;;;17.30;99.90;;;;;;5091350;28;20400;-51
2022/05/18 00:50:21;;;;;;;9.85;5.93;;;17.30;99.90;;;;;;5084705;28;20043;-51
2022/05/18 00:53:06;;;;;;;7.82;5.35;;;17.40;99.90;;;;;;5091326;28;20040;-50
2022/05/18 00:55:37;;;;;;;10.85;6.38;;;17.30;99.90;;;;;;5091717;28;20040;-53
2022/05/18 00:58:33;;;;;;;6.80;5.68;;;17.30;99.90;;;;;;5092134;28;20123;-52
2022/05/18 01:00:59;;;;;;;8.52;4.85;;;17.30;99.90;;;;;;5071786;28;20079;-50
2022/05/18 01:03:36;;;;;;;8.80;6.03;;;17.40;99.90;;;;;;5084309;28;20040;-52
2022/05/18 01:06:25;;;;;;;7.85;5.35;;;17.30;99.90;;;;;;5088445;28;20046;-50
2022/05/18 01:09:00;;;;;;;9.63;5.93;;;17.30;99.90;;;;;;5091183;28;20044;-50
2022/05/18 01:11:25;;;;;;;11.48;7.20;;;17.30;99.90;;;;;;5076858;28;20036;-53
2022/05/18 01:13:52;;;;;;;11.60;6.18;;;17.20;99.90;;;;;;5053485;28;20308;-51
2022/05/18 01:16:19;;;;;;;8.90;5.50;;;17.20;99.90;;;;;;5074096;28;20052;-51
2022/05/18 01:18:46;;;;;;;7.65;5.70;;;17.20;99.90;;;;;;5089416;28;20119;-51
2022/05/18 01:21:11;;;;;;;8.40;5.38;;;17.20;99.90;;;;;;5091608;28;20040;-52
2022/05/18 01:23:59;;;;;;;9.15;5.57;;;17.20;99.90;;;;;;5090669;28;20047;-54
2022/05/18 01:26:31;;;;;;;7.90;5.15;;;17.20;99.90;;;;;;5061111;28;20114;-50
2022/05/18 01:28:59;;;;;;;8.95;5.72;;;17.20;99.90;;;;;;5090727;28;20048;-52
2022/05/18 01:31:49;;;;;;;10.48;5.53;;;17.20;99.90;;;;;;5077275;28;20392;-53
2022/05/18 01:34:18;;;;;;;9.40;6.20;;;17.10;99.90;;;;;;5071301;28;20040;-51
2022/05/18 01:36:44;;;;;;;10.10;5.28;;;17.10;99.90;;;;;;5071108;28;20123;-50
2022/05/18 01:39:16;;;;;;;9.18;5.53;;;17.10;99.90;;;;;;5071784;28;20468;-50
2022/05/18 01:41:51;;;;;;;7.90;5.43;;;17.10;99.90;;;;;;5070906;28;20129;-54
2022/05/18 01:44:17;;;;;;;7.05;5.13;;;17.00;99.90;;;;;;5067236;28;20036;-50
2022/05/18 01:46:43;;;;;;;6.60;4.97;;;17.00;99.90;;;;;;5079777;28;20045;-50
2022/05/18 01:49:09;;;;;;;8.13;5.90;;;17.00;99.90;;;;;;5072327;28;20485;-53
2022/05/18 01:51:40;;;;;;;12.35;6.50;;;17.00;99.90;;;;;;5074095;28;20391;-51
2022/05/18 01:54:05;;;;;;;9.85;6.30;;;16.90;99.90;;;;;;5091258;28;20040;-51
2022/05/18 01:56:32;;;;;;;8.40;5.65;;;16.90;99.90;;;;;;5091376;28;20032;-50
2022/05/18 01:58:57;;;;;;;12.32;7.22;;;16.90;99.90;;;;;;5069462;28;20036;-50
2022/05/18 02:01:23;;;;;;;10.38;6.95;;;16.90;99.90;;;;;;5070747;28;20037;-52
2022/05/18 02:03:49;;;;;;;9.20;5.57;;;16.90;99.90;;;;;;5071241;28;20045;-52
2022/05/18 02:06:16;;;;;;;8.45;6.95;;;16.80;99.90;;;;;;5064419;28;20123;-53
2022/05/18 02:08:42;;;;;;;10.95;7.13;;;16.80;99.90;;;;;;5082052;28;20496;-51
2022/05/18 02:11:16;;;;;;;11.98;7.15;;;16.80;99.90;;;;;;5082989;28;20055;-51
2022/05/18 02:13:42;;;;;;;7.80;5.97;;;16.80;99.90;;;;;;5086976;28;20032;-52
2022/05/18 02:16:09;;;;;;;9.52;6.93;;;16.70;99.90;;;;;;5079049;28;20045;-50
2022/05/18 02:18:35;;;;;;;7.57;5.28;;;16.70;99.90;;;;;;5070795;28;20036;-52
2022/05/18 02:21:07;;;;;;;8.88;7.18;;;16.70;99.90;;;;;;5072472;28;20039;-51
2022/05/18 02:23:33;;;;;;;10.35;6.43;;;16.60;99.90;;;;;;5071206;28;20048;-50
2022/05/18 02:26:09;;;;;;;12.27;7.90;;;16.60;99.90;;;;;;5070617;28;20308;-52
2022/05/18 02:28:35;;;;;;;7.50;6.22;;;16.60;99.90;;;;;;5090174;28;20046;-54
2022/05/18 02:31:01;;;;;;;10.65;7.05;;;16.60;99.90;;;;;;5090807;28;20043;-52
2022/05/18 02:33:27;;;;;;;9.85;7.22;;;16.60;99.90;;;;;;5090770;28;20039;-52
2022/05/18 02:35:52;;;;;;;10.00;7.65;;;16.60;99.90;;;;;;5066400;28;20071;-50
2022/05/18 02:38:18;;;;;;;12.13;7.05;;;16.50;99.90;;;;;;5094583;28;20040;-51
2022/05/18 02:40:44;;;;;;;16.60;8.70;;;16.50;99.90;;;;;;5083872;28;20090;-52
2022/05/18 02:43:10;;;;;;;7.78;6.28;;;16.40;99.90;;;;;;5074353;28;20442;-50
2022/05/18 02:45:35;;;;;;;12.35;8.20;;;16.40;99.90;;;;;;5072073;28;20492;-50
2022/05/18 02:48:01;;;;;;;7.95;6.35;;;16.40;99.90;;;;;;5074107;28;20032;-54
2022/05/18 02:50:28;;;;;;;12.38;7.82;;;16.40;99.90;;;;;;5074110;28;20044;-53
2022/05/18 02:52:53;;;;;;;14.43;7.20;;;16.30;99.90;;;;;;5084496;28;20127;-53
2022/05/18 02:58:04;;;;;;;12.98;8.70;;;16.20;99.90;;;;;;5070281;28;20095;-52
2022/05/18 03:00:30;;;;;;;9.68;7.28;;;16.20;99.90;;;;;;5064118;28;20450;-50
2022/05/18 03:02:55;;;;;;;11.98;7.88;;;16.20;99.90;;;;;;5091519;28;20043;-51
2022/05/18 03:05:21;;;;;;;12.20;8.35;;;16.10;99.90;;;;;;5089848;28;20079;-51
2022/05/18 03:07:47;;;;;;;11.32;7.05;;;16.10;99.90;;;;;;5076985;28;20514;-54
2022/05/18 03:10:16;;;;;;;11.65;8.18;;;16.10;99.90;;;;;;5087488;28;20040;-50
2022/05/18 03:12:46;;;;;;;9.90;7.47;;;16.10;99.90;;;;;;5083263;28;20044;-50
2022/05/18 03:15:12;;;;;;;13.80;9.77;;;16.10;99.90;;;;;;5073913;28;20122;-51
2022/05/18 03:17:39;;;;;;;12.07;8.77;;;16.00;99.90;;;;;;5093755;28;20036;-50
2022/05/18 03:20:06;;;;;;;13.88;9.05;;;16.00;99.90;;;;;;5086379;28;20041;-51
2022/05/18 03:25:18;;;;;;;14.40;9.52;;;15.90;99.90;;;;;;5073830;28;20446;-52
2022/05/18 03:27:44;;;;;;;14.23;9.27;;;15.80;99.90;;;;;;5062958;28;20168;-50
2022/05/18 03:30:12;;;;;;;15.07;9.40;;;15.80;99.90;;;;;;5088609;28;20040;-51
2022/05/18 03:32:40;;;;;;;12.50;9.30;;;15.80;99.90;;;;;;5072669;28;20048;-50
2022/05/18 03:35:07;;;;;;;7.97;7.18;;;15.80;99.90;;;;;;5074071;28;20039;-51
2022/05/18 03:37:33;;;;;;;13.52;8.80;;;15.80;99.90;;;;;;5073500;28;20446;-51
2022/05/18 03:39:59;;;;;;;10.02;8.73;;;15.70;99.90;;;;;;5076649;28;20102;-55
2022/05/18 03:42:25;;;;;;;15.02;8.52;;;15.70;99.90;;;;;;5066935;28;20028;-54
2022/05/18 03:44:50;;;;;;;10.95;7.28;;;15.70;99.90;;;;;;5061008;28;20040;-51
2022/05/18 03:47:16;;;;;;;13.48;8.98;;;15.70;99.90;;;;;;5092291;28;20040;-50
2022/05/18 03:49:42;;;;;;;13.07;9.48;;;15.70;99.90;;;;;;5075635;28;20036;-52
2022/05/18 03:52:08;;;;;;;10.60;7.93;;;15.70;99.90;;;;;;5081485;28;20404;-54
2022/05/18 03:54:33;;;;;;;11.93;8.02;;;15.70;99.90;;;;;;5099979;28;20036;-50
2022/05/18 03:56:59;;;;;;;10.10;8.63;;;15.70;99.90;;;;;;5048394;28;20377;-52
2022/05/18 03:59:26;;;;;;;11.50;9.00;;;15.70;99.90;;;;;;5093162;28;20040;-51
2022/05/18 04:01:52;;;;;;;12.13;8.88;;;15.70;99.90;;;;;;5075352;28;20488;-52
2022/05/18 04:04:18;;;;;;;14.98;8.73;;;15.70;99.90;;;;;;5067354;28;20084;-54
2022/05/18 04:06:44;;;;;;;12.05;8.13;;;15.70;99.90;;;;;;5092793;28;20122;-51
2022/05/18 04:09:09;;;;;;;12.63;8.07;;;15.70;99.90;;;;;;5093300;28;20048;-51
2022/05/18 04:11:35;;;;;;;13.80;8.95;;;15.70;99.90;;;;;;5074774;28;20043;-50
2022/05/18 04:14:01;;;;;;;10.18;6.97;;;15.70;99.90;;;;;;5092671;28;20483;-51
2022/05/18 04:16:27;;;;;;;13.23;7.68;;;15.80;99.90;;;;;;5094751;28;20036;-53
2022/05/18 04:18:53;;;;;;;9.60;8.30;;;15.80;99.90;;;;;;5095030;28;20044;-52
2022/05/18 04:21:18;;;;;;;13.13;9.38;;;15.80;99.90;;;;;;5079204;28;20398;-52
2022/05/18 04:23:44;;;;;;;11.13;8.00;;;15.80;99.90;;;;;;5092739;28;20395;-52
2022/05/18 04:26:11;;;;;;;10.60;8.35;;;15.90;99.90;;;;;;5074976;28;20120;-50
2022/05/18 04:28:37;;;;;;;9.30;7.93;;;15.90;99.90;;;;;;5072093;28;20167;-50
2022/05/18 04:31:03;;;;;;;12.93;9.18;;;15.90;99.90;;;;;;5081094;28;20052;-52
2022/05/18 04:33:29;;;;;;;12.43;8.80;;;15.90;99.90;;;;;;5062222;28;20049;-54
2022/05/18 04:35:55;;;;;;;10.70;7.57;;;16.00;99.90;;;;;;5072319;28;20059;-51
2022/05/18 04:38:22;;;;;;;11.20;7.55;;;16.10;99.90;;;;;;5087468;28;20036;-52
2022/05/18 04:40:48;;;;;;;10.20;7.90;;;16.10;99.90;;;;;;5072152;28;20070;-52
2022/05/18 04:43:17;;;;;;;13.75;9.70;;;16.20;99.90;;;;;;5059360;28;20141;-51
2022/05/18 04:45:46;;;;;;;11.73;8.23;;;16.20;99.90;;;;;;5087453;28;20447;-51
2022/05/18 04:48:15;;;;;;;11.93;9.27;;;16.20;99.90;;;;;;5074057;28;20039;-51
2022/05/18 04:50:41;;;;;;;11.10;8.00;;;16.20;99.90;;;;;;5092279;28;20526;-50
2022/05/18 04:53:07;;;;;;;12.75;9.95;;;16.30;99.90;;;;;;5092026;28;20391;-55
2022/05/18 04:55:33;;;;;;;11.68;9.68;;;16.30;99.90;;;;;;5067781;28;20160;-55
2022/05/18 05:00:34;;;;;;;17.17;10.15;;;16.40;99.90;;;;;;5043721;28;20065;-45
2022/05/18 05:03:00;;;;;;;13.40;9.45;;;16.40;99.90;;;;;;5036057;28;20497;-45
2022/05/18 05:05:27;;;;;;;13.73;9.70;;;16.40;99.90;;;;;;5039392;28;20040;-43
2022/05/18 05:07:54;;;;;;;18.13;10.20;;;16.50;99.90;;;;;;5047183;28;20492;-44
2022/05/18 05:10:20;;;;;;;14.32;9.38;;;16.50;99.90;;;;;;5051115;28;20115;-45
2022/05/18 05:12:46;;;;;;;14.10;10.93;;;16.60;99.90;;;;;;5047646;28;20049;-44
2022/05/18 05:15:14;;;;;;;12.95;10.13;;;16.60;99.90;;;;;;5039232;28;20335;-44
2022/05/18 05:17:39;;;;;;;17.17;11.60;;;16.70;99.90;;;;;;5045594;28;20059;-48
2022/05/18 05:20:06;;;;;;;14.65;11.13;;;16.80;99.90;;;;;;5035207;28;20033;-44
2022/05/18 05:22:32;;;;;;;13.95;10.95;;;16.90;99.90;;;;;;5041934;28;20029;-44
2022/05/18 05:24:58;;;;;;;16.95;11.05;;;17.00;99.90;;;;;;5035269;28;20040;-43
2022/05/18 05:27:24;;;;;;;15.23;10.77;;;17.00;99.90;;;;;;5035652;28;20041;-44
2022/05/18 05:29:50;;;;;;;16.05;10.95;;;17.10;99.90;;;;;;5038950;28;20124;-43
2022/05/18 05:32:16;;;;;;;17.15;11.32;;;17.10;99.90;;;;;;5032539;28;20183;-45
2022/05/18 05:34:42;;;;;;;17.63;11.63;;;17.20;99.90;;;;;;5036573;28;20654;-45
2022/05/18 05:37:08;;;;;;;16.00;11.20;;;17.30;99.90;;;;;;5036182;28;20203;-44
2022/05/18 05:39:34;;;;;;;14.43;11.88;;;17.30;99.90;;;;;;5033820;28;20189;-46
2022/05/18 05:42:00;;;;;;;16.33;10.95;;;17.40;99.90;;;;;;5043739;28;20120;-43
2022/05/18 05:44:26;;;;;;;14.88;11.07;;;17.50;99.90;;;;;;5043000;28;20096;-44
2022/05/18 05:46:53;;;;;;;15.20;11.35;;;17.50;99.90;;;;;;5036002;28;20041;-45
2022/05/18 05:49:19;;;;;;;15.30;11.27;;;17.60;99.90;;;;;;5040684;28;20048;-45
2022/05/18 05:51:46;;;;;;;17.77;12.30;;;17.70;99.90;;;;;;5037062;28;20055;-43
2022/05/18 05:54:11;;;;;;;16.08;11.93;;;17.80;99.90;;;;;;5022984;28;20037;-43
2022/05/18 05:56:37;;;;;;;15.15;12.07;;;17.90;99.90;;;;;;5045526;28;20032;-44
2022/05/18 05:59:03;;;;;;;16.70;13.18;;;18.00;99.90;;;;;;5049468;28;20066;-44
2022/05/18 06:01:29;;;;;;;15.57;13.23;;;18.00;99.90;;;;;;5047157;28;20029;-45
2022/05/18 06:03:55;;;;;;;16.77;13.80;;;18.10;99.90;;;;;;5046026;28;20055;-44
2022/05/18 06:06:21;;;;;;;20.25;13.85;;;18.20;99.90;;;;;;5038939;28;20501;-44
2022/05/18 06:08:47;;;;;;;19.50;13.15;;;18.30;99.90;;;;;;5040160;28;20129;-44
2022/05/18 06:11:14;;;;;;;17.25;11.82;;;18.40;99.90;;;;;;5039305;28;20665;-45
2022/05/18 06:13:40;;;;;;;16.02;12.05;;;18.50;99.90;;;;;;5046650;28;20124;-43
2022/05/18 06:16:09;;;;;;;15.57;12.43;;;18.60;99.90;;;;;;5050264;28;20045;-44
2022/05/18 06:18:36;;;;;;;15.48;12.98;;;18.70;99.90;;;;;;5049643;28;20041;-45
2022/05/18 06:21:02;;;;;;;17.42;12.75;;;18.80;99.90;;;;;;5043775;28;20496;-44
2022/05/18 06:23:28;;;;;;;15.98;12.75;;;18.70;99.90;;;;;;5046408;28;20052;-46
2022/05/18 06:26:05;;;;;;;18.50;12.93;;;18.70;99.90;;;;;;5040563;28;20485;-44
2022/05/18 06:28:32;;;;;;;19.25;13.38;;;18.70;99.90;;;;;;5041269;28;20463;-45
2022/05/18 06:30:58;;;;;;;21.77;13.50;;;18.60;99.90;;;;;;5042671;28;20033;-45
2022/05/18 06:33:24;;;;;;;16.05;13.30;;;18.70;99.90;;;;;;5046800;28;20474;-43
2022/05/18 06:35:51;;;;;;;16.75;13.23;;;18.80;99.90;;;;;;5041787;28;20065;-48
2022/05/18 06:38:18;;;;;;;15.70;13.25;;;18.90;99.90;;;;;;5040008;28;20033;-45
2022/05/18 06:43:29;;;;;;;20.77;13.88;;;19.10;99.90;;;;;;5044645;28;20983;-46
2022/05/18 06:45:56;;;;;;;19.75;14.40;;;19.20;99.90;;;;;;5042489;28;20052;-43
2022/05/18 06:48:22;;;;;;;19.55;14.77;;;19.30;99.90;;;;;;5039889;28;20067;-43
2022/05/18 06:50:48;;;;;;;17.30;14.43;;;19.40;99.90;;;;;;5039295;28;20037;-42
2022/05/18 06:53:14;;;;;;;16.38;13.35;;;19.50;99.90;;;;;;5021742;28;20500;-44
2022/05/18 06:55:39;;;;;;;16.15;13.65;;;19.60;99.90;;;;;;5046733;28;20547;-49
2022/05/18 06:58:05;;;;;;;18.55;13.85;;;19.80;99.90;;;;;;5046740;28;20079;-45
2022/05/18 07:00:31;;;;;;;15.85;13.48;;;19.90;99.90;;;;;;5045351;28;20434;-47
2022/05/18 07:02:57;;;;;;;19.35;14.52;;;20.00;99.90;;;;;;5039443;28;20518;-49
2022/05/18 07:05:23;;;;;;;17.38;13.95;;;20.10;99.90;;;;;;5040158;28;20056;-46
2022/05/18 07:07:48;;;;;;;15.07;12.70;;;20.20;99.90;;;;;;5038697;28;20037;-50
2022/05/18 07:10:14;;;;;;;16.15;12.75;;;20.30;99.90;;;;;;5043126;28;20369;-46
2022/05/18 07:12:40;;;;;;;17.60;14.27;;;20.40;99.90;;;;;;5040973;28;20116;-45
2022/05/18 07:15:07;;;;;;;15.82;13.05;;;20.50;99.90;;;;;;5039678;28;20037;-48
2022/05/18 07:17:34;;;;;;;14.77;12.05;;;20.60;99.90;;;;;;5043646;28;20043;-46
2022/05/18 07:20:01;;;;;;;19.23;12.48;;;20.70;99.90;;;;;;5050924;28;20072;-46
2022/05/18 07:22:27;;;;;;;15.50;12.32;;;20.70;99.90;;;;;;5040929;28;20044;-47
2022/05/18 07:24:52;;;;;;;16.25;12.40;;;20.80;99.90;;;;;;5032174;28;20040;-49
2022/05/18 07:27:18;;;;;;;15.68;11.65;;;21.00;99.90;;;;;;5050854;28;20045;-44
2022/05/18 07:29:44;;;;;;;18.15;12.45;;;21.10;99.90;;;;;;5031949;28;20448;-44
2022/05/18 07:32:12;;;;;;;19.83;13.15;;;21.30;99.90;;;;;;5049936;28;20135;-44
2022/05/18 07:34:39;;;;;;;15.55;10.98;;;21.40;99.90;;;;;;5053023;28;20067;-46
2022/05/18 07:37:06;;;;;;;15.75;11.60;;;21.60;99.90;;;;;;5043904;28;20091;-44
2022/05/18 07:39:34;;;;;;;16.02;11.23;;;21.70;99.90;;;;;;5039516;28;20048;-46
2022/05/18 07:42:00;;;;;;;13.93;11.13;;;21.90;99.90;;;;;;5043627;28;20091;-49
2022/05/18 07:44:27;;;;;;;12.80;11.05;;;22.10;99.90;;;;;;5041111;28;20394;-49
2022/05/18 07:46:53;;;;;;;15.05;10.93;;;22.20;99.90;;;;;;5022810;28;20045;-46
2022/05/18 07:49:19;;;;;;;16.58;10.95;;;22.20;99.90;;;;;;5046954;28;20048;-45
2022/05/18 07:51:45;;;;;;;13.07;10.90;;;22.30;99.90;;;;;;5035143;28;20045;-51
2022/05/18 07:54:12;;;;;;;13.07;9.90;;;22.30;99.40;;;;;;5019867;28;20072;-47
2022/05/18 07:56:38;;;;;;;15.38;10.73;;;22.30;99.10;;;;;;5027001;28;20044;-47
2022/05/18 07:59:05;;;;;;;15.70;10.93;;;22.30;99.20;;;;;;5042292;28;20033;-46
2022/05/18 08:01:31;;;;;;;17.63;12.30;;;22.30;98.10;;;;;;5052194;28;20029;-46
2022/05/18 08:03:57;;;;;;;16.65;12.15;;;22.40;98.60;;;;;;5046553;28;20043;-45
2022/05/18 08:06:23;;;;;;;16.20;12.52;;;22.50;98.70;;;;;;5041402;28;20041;-50
2022/05/18 08:08:49;;;;;;;16.73;12.23;;;22.60;98.80;;;;;;5053321;28;20032;-44
2022/05/18 08:16:47;;;;;;;18.70;13.43;;;22.80;98.10;;;;;;5053266;28;20048;-48
2022/05/18 08:19:15;;;;;;;17.80;13.73;;;22.80;97.50;;;;;;5044639;28;20437;-47
2022/05/18 08:21:41;;;;;;;20.38;13.98;;;22.80;97.20;;;;;;5042719;28;20052;-44
2022/05/18 08:24:08;;;;;;;21.58;14.57;;;22.90;97.70;;;;;;5040376;28;20834;-50
2022/05/18 08:26:34;;;;;;;21.33;16.05;;;23.00;97.80;;;;;;5045771;28;20408;-46
2022/05/18 08:29:03;;;;;;;17.70;14.05;;;23.10;97.50;;;;;;5051329;28;20040;-44
2022/05/18 08:31:29;;;;;;;17.48;14.20;;;23.20;97.20;;;;;;5046392;28;20178;-49
2022/05/18 08:33:54;;;;;;;22.48;14.60;;;23.20;97.30;;;;;;5043768;28;20095;-44
2022/05/18 08:36:22;;;;;;;21.42;16.75;;;23.10;96.90;;;;;;5041290;28;20033;-46
2022/05/18 08:38:48;;;;;;;95.22;38.88;;;23.20;97.40;;;;;;5037798;28;20044;-47
2022/05/18 08:41:19;;;;;;;24.17;16.65;;;23.30;97.60;;;;;;5050617;28;20033;-47
2022/05/18 08:43:50;;;;;;;26.17;17.13;;;23.40;97.60;;;;;;5042048;28;20123;-47
2022/05/18 08:46:34;;;;;;;19.65;14.52;;;23.40;97.20;;;;;;5039564;28;20046;-47
2022/05/18 08:49:02;;;;;;;;;;;23.50;97.30;;;;;;5051272;28;20616;-49
2022/05/18 08:51:45;;;;;;;19.80;14.55;;;23.60;97.10;;;;;;5041561;28;19960;-53
2022/05/18 08:54:14;;;;;;;20.52;15.57;;;23.60;97.10;;;;;;5041011;28;20045;-54
2022/05/18 08:56:42;;;;;;;20.30;15.63;;;23.70;97.00;;;;;;5040412;28;20036;-50
2022/05/18 08:59:20;;;;;;;18.08;15.15;;;23.70;97.10;;;;;;5056456;28;20303;-49
2022/05/18 09:01:51;;;;;;;18.77;14.25;;;23.90;96.90;;;;;;5056490;28;20037;-47
2022/05/18 09:04:43;;;;;;;23.20;15.13;;;24.10;96.90;;;;;;5027292;28;20037;-48
2022/05/18 09:07:14;;;;;;;22.90;15.20;;;24.20;96.80;;;;;;5044093;28;20053;-48
2022/05/18 09:10:16;;;;;;;21.35;15.43;;;24.30;96.30;;;;;;5045928;28;20075;-44
2022/05/18 09:12:46;;;;;;;23.70;15.88;;;24.30;96.10;;;;;;5043204;28;20037;-46
2022/05/18 09:15:17;;;;;;;22.23;16.67;;;24.50;96.60;;;;;;5043240;28;20037;-47
2022/05/18 09:18:07;;;;;;;16.90;15.15;;;24.60;96.40;;;;;;5048676;28;20496;-47
2022/05/18 09:20:33;;;;;;;18.90;15.05;;;24.60;95.70;;;;;;5045443;28;20047;-50
2022/05/18 09:23:19;;;;;;;20.85;14.63;;;24.60;95.90;;;;;;5046885;28;20033;-46
2022/05/18 09:25:59;;;;;;;20.40;12.18;;;24.80;95.20;;;;;;5043320;28;20384;-46
2022/05/18 09:28:37;;;;;;;19.38;12.88;;;24.80;93.80;;;;;;5045768;28;20042;-46
2022/05/18 09:31:08;;;;;;;21.10;15.65;;;24.90;94.60;;;;;;5050086;28;20040;-48
2022/05/18 09:33:59;;;;;;;19.00;15.63;;;25.00;94.10;;;;;;5050889;28;20048;-48
2022/05/18 09:36:44;;;;;;;19.75;15.45;;;25.10;93.40;;;;;;5046774;28;20132;-48
2022/05/18 09:39:17;;;;;;;17.17;15.32;;;24.80;93.60;;;;;;5046013;28;20053;-47
2022/05/18 09:41:51;;;;;;;21.20;15.95;;;24.60;93.60;;;;;;5054384;28;20416;-48
2022/05/18 09:44:33;;;;;;;21.95;15.98;;;24.60;94.00;;;;;;5041029;28;20049;-45
2022/05/18 09:47:01;;;;;;;18.67;15.45;;;24.70;94.60;;;;;;5048072;28;20048;-46
2022/05/18 09:49:36;;;;;;;21.35;15.30;;;24.90;94.70;;;;;;5048914;28;20049;-46
2022/05/18 09:52:05;;;;;;;18.98;15.23;;;25.20;94.20;;;;;;5051550;28;20048;-47
2022/05/18 09:54:32;;;;;;;18.83;15.13;;;25.30;93.90;;;;;;5053665;28;20052;-47
2022/05/18 09:57:12;;;;;;;18.83;14.80;;;25.10;93.50;;;;;;5055802;28;20049;-45
2022/05/18 09:59:44;;;;;;;18.85;14.98;;;24.90;93.40;;;;;;5052145;28;20056;-46
2022/05/18 10:07:51;;;;;;;17.23;13.93;;;25.30;93.40;;;;;;5046461;28;20044;-43
2022/05/18 10:10:22;;;;;;;16.52;14.10;;;25.00;93.90;;;;;;5050922;28;20108;-44
2022/05/18 10:12:54;;;;;;;19.40;15.65;;;25.10;93.20;;;;;;5049275;28;20045;-43
2022/05/18 10:15:32;;;;;;;15.70;13.40;;;25.10;93.40;;;;;;5048238;28;20532;-43
2022/05/18 10:18:09;;;;;;;17.67;13.95;;;25.10;93.30;;;;;;5046777;28;20045;-45
2022/05/18 10:20:36;;;;;;;18.95;12.57;;;25.00;93.80;;;;;;5041507;28;20037;-45
2022/05/18 10:23:04;;;;;;;17.88;14.30;;;25.30;94.10;;;;;;5050642;28;20053;-44
2022/05/18 10:25:40;;;;;;;16.80;14.10;;;25.30;93.00;;;;;;5036866;28;20425;-45
2022/05/18 10:28:29;;;;;;;17.88;13.38;;;25.40;93.40;;;;;;5044731;28;20132;-45
2022/05/18 10:31:03;;;;;;;18.70;14.02;;;25.50;92.90;;;;;;5046565;28;20405;-44
2022/05/18 10:33:36;;;;;;;17.92;13.15;;;25.70;93.00;;;;;;5054686;28;20097;-44
2022/05/18 10:36:29;;;;;;;15.27;11.65;;;25.80;93.30;;;;;;5061007;28;20132;-45
2022/05/18 10:39:00;;;;;;;16.70;12.30;;;26.10;93.60;;;;;;5047819;28;20108;-45
2022/05/18 10:41:36;;;;;;;14.65;12.38;;;26.30;93.10;;;;;;5040681;28;20083;-46
2022/05/18 10:44:16;;;;;;;16.58;13.32;;;26.40;93.20;;;;;;5040485;28;20041;-43
2022/05/18 10:46:47;;;;;;;18.23;13.32;;;26.70;92.80;;;;;;5035703;28;20574;-48
2022/05/18 10:49:31;;;;;;;14.98;12.93;;;26.70;92.50;;;;;;5047861;28;20400;-44
2022/05/18 10:52:29;;;;;;;14.43;9.95;;;26.80;91.60;;;;;;5050812;28;20044;-44
2022/05/18 10:54:58;;;;;;;15.07;12.23;;;26.40;90.60;;;;;;5042374;28;20642;-45
2022/05/18 10:57:34;;;;;;;14.80;10.82;;;26.50;91.90;;;;;;5041221;28;20033;-46
2022/05/18 11:00:15;;;;;;;17.40;13.90;;;26.60;91.30;;;;;;5077256;23;20511;-81
2022/05/18 11:03:06;;;;;;;17.65;14.07;;;26.50;90.90;;;;;;5002496;28;20037;-82
2022/05/18 11:05:52;;;;;;;16.48;13.02;;;26.60;91.80;;;;;;5021824;28;20041;-81
2022/05/18 11:08:21;;;;;;;17.70;13.32;;;26.80;91.80;;;;;;5030434;28;20037;-81
2022/05/18 11:10:55;;;;;;;18.20;13.18;;;26.70;91.60;;;;;;4983752;28;20462;-81
2022/05/18 11:13:37;;;;;;;20.38;14.55;;;26.50;91.10;;;;;;5000945;28;20144;-83
2022/05/18 11:16:26;;;;;;;18.80;14.32;;;26.40;90.60;;;;;;4998817;28;20056;-82
2022/05/18 11:19:12;;;;;;;16.67;11.07;;;26.20;90.80;;;;;;5002818;28;20056;-82
2022/05/18 11:21:53;;;;;;;15.20;12.13;;;26.50;91.40;;;;;;5003122;28;20117;-82
2022/05/18 11:24:36;;;;;;;18.58;14.20;;;26.30;89.60;;;;;;5001645;28;20467;-82
2022/05/18 11:27:27;;;;;;;19.50;14.68;;;26.00;89.50;;;;;;5006232;28;20060;-81
2022/05/18 11:30:09;;;;;;;21.08;15.77;;;26.00;90.70;;;;;;4999196;28;20048;-81
2022/05/18 11:32:39;;;;;;;15.35;13.02;;;25.40;90.50;;;;;;5010439;28;20048;-80
2022/05/18 11:35:24;;;;;;;19.75;12.98;;;25.40;90.90;;;;;;5008525;28;20046;-80
2022/05/18 11:38:08;;;;;;;17.30;13.00;;;25.30;91.10;;;;;;4982022;28;20034;-81
2022/05/18 11:40:37;;;;;;;14.10;10.70;;;25.60;91.60;;;;;;5004202;28;20045;-83
2022/05/18 11:43:33;;;;;;;15.07;11.32;;;25.70;91.10;;;;;;4988754;28;20049;-80
2022/05/18 11:46:15;;;;;;;14.80;10.55;;;25.90;90.60;;;;;;5005250;28;20462;-81
2022/05/18 11:48:47;;;;;;;14.70;10.48;;;26.00;89.00;;;;;;5005686;28;20045;-82
2022/05/18 11:51:36;;;;;;;12.90;10.30;;;26.50;91.10;;;;;;4994819;28;20127;-83
2022/05/18 11:54:40;;;;;;;14.60;11.57;;;26.90;90.80;;;;;;5023523;28;20137;-81
2022/05/18 11:57:47;;;;;;;15.20;12.55;;;27.10;86.80;;;;;;4989192;28;20053;-82
2022/05/18 12:00:44;;;;;;;18.33;12.93;;;27.20;87.10;;;;;;4990749;28;20046;-81
2022/05/18 12:03:24;;;;;;;16.08;12.88;;;26.80;86.50;;;;;;4982740;28;20208;-81
2022/05/18 12:06:13;;;;;;;18.73;11.93;;;26.70;87.30;;;;;;5003196;28;20129;-81
2022/05/18 12:11:13;;;;;;;13.77;11.57;;;26.20;89.40;;;;;;5066026;23;20131;-64
2022/05/18 12:13:46;;;;;;;17.40;14.38;;;26.20;88.70;;;;;;5044135;28;20044;-63
2022/05/18 12:16:31;;;;;;;18.63;14.25;;;25.70;86.80;;;;;;5043024;28;20256;-66
2022/05/18 12:19:23;;;;;;;23.13;17.27;;;25.40;89.40;;;;;;5051808;28;20389;-60
2022/05/18 12:21:56;;;;;;;23.65;16.90;;;25.10;90.30;;;;;;5042677;28;20114;-58
2022/05/18 12:24:24;;;;;;;24.60;17.23;;;25.40;91.50;;;;;;5050238;28;20046;-58
2022/05/18 12:26:50;;;;;;;24.77;16.77;;;25.40;90.30;;;;;;5052419;28;20044;-60
2022/05/18 12:29:20;;;;;;;20.35;14.55;;;25.50;90.70;;;;;;5026277;28;20127;-64
2022/05/18 12:31:47;;;;;;;18.95;14.05;;;25.70;90.30;;;;;;5039643;28;20068;-64
2022/05/18 12:34:12;;;;;;;19.20;14.43;;;26.00;90.50;;;;;;5033895;28;20056;-63
2022/05/18 12:37:07;;;;;;;16.63;12.57;;;26.00;89.10;;;;;;5030955;28;20116;-63
2022/05/18 12:39:47;;;;;;;21.85;14.98;;;25.80;87.70;;;;;;5040714;28;20194;-66
2022/05/18 12:42:35;;;;;;;21.25;15.02;;;25.40;88.70;;;;;;5040336;28;20037;-62
2022/05/18 12:45:14;;;;;;;18.65;14.80;;;24.70;90.60;;;;;;5017718;28;20049;-64
2022/05/18 12:47:47;;;;;;;25.30;17.23;;;24.70;91.10;;;;;;5062881;28;20048;-58
2022/05/18 12:50:28;;;;;;;26.50;16.85;;;24.60;90.90;;;;;;5029374;28;20048;-62
2022/05/18 12:53:10;;;;;;;23.27;17.95;;;24.30;91.80;;;;;;5016411;28;20097;-65
2022/05/18 12:55:44;;;;;;;23.83;17.02;;;24.30;91.80;;;;;;5024679;28;20047;-66
2022/05/18 12:58:10;;;;;;;25.40;18.52;;;24.40;92.00;;;;;;5036066;28;20469;-65
2022/05/18 13:00:45;;;;;;;29.23;19.45;;;24.00;91.80;;;;;;5011248;28;20043;-65
2022/05/18 13:03:11;;;;;;;25.33;19.67;;;24.10;92.30;;;;;;5038927;28;20051;-65
2022/05/18 13:05:46;;;;;;;25.67;20.10;;;23.80;92.50;;;;;;5041908;28;20406;-67
2022/05/18 13:08:15;;;;;;;27.88;20.58;;;23.50;93.20;;;;;;5044388;28;20440;-64
2022/05/18 13:11:10;;;;;;;28.70;20.75;;;22.90;93.90;;;;;;5032078;28;20060;-65
2022/05/18 13:13:58;;;;;;;27.45;20.50;;;22.60;95.20;;;;;;5036800;28;20036;-66
2022/05/18 13:16:38;;;;;;;28.58;20.48;;;22.60;96.20;;;;;;5036895;28;20035;-65